Time;durP1;ratioP1;P1;durP2;ratioP2;P2;SDS_P1;SDS_P2;PMS_P1;PMS_P2;Temp;Humidity;BMP_temperature;BMP_pressure;BME280_temperature;BME280_humidity;BME280_pressure;Samples;Min_cycle;Max_cycle;Signal;HPM_P1;HPM_P2
2023/05/23 00:00:27;;;;;;;7.67;6.27;;;19.00;99.90;;;;;;5057716;28;20760;-60
2023/05/23 00:02:53;;;;;;;8.60;6.77;;;19.00;99.90;;;;;;5057808;28;20189;-61
2023/05/23 00:05:19;;;;;;;7.40;6.70;;;19.10;99.90;;;;;;5056914;28;20255;-60
2023/05/23 00:07:44;;;;;;;8.47;7.57;;;18.90;99.90;;;;;;5058087;28;20246;-61
2023/05/23 00:10:10;;;;;;;8.67;6.60;;;18.80;99.90;;;;;;5056661;28;20234;-61
2023/05/23 00:12:38;;;;;;;9.63;7.33;;;18.90;99.90;;;;;;5055790;28;20177;-61
2023/05/23 00:15:06;;;;;;;8.53;7.70;;;18.90;99.90;;;;;;5055415;28;20201;-61
2023/05/23 00:17:35;;;;;;;8.00;7.03;;;18.70;99.90;;;;;;5055776;28;20234;-60
2023/05/23 00:20:02;;;;;;;7.43;6.60;;;18.70;99.90;;;;;;5055269;28;20225;-61
2023/05/23 00:22:28;;;;;;;8.00;7.20;;;18.80;99.90;;;;;;5055642;28;20546;-61
2023/05/23 00:24:53;;;;;;;7.80;6.77;;;18.80;99.90;;;;;;5055974;28;20200;-61
2023/05/23 00:27:19;;;;;;;7.87;7.10;;;18.80;99.90;;;;;;5055538;28;20196;-60
2023/05/23 00:29:44;;;;;;;11.07;7.63;;;18.80;99.90;;;;;;5055549;28;20212;-57
2023/05/23 00:32:10;;;;;;;8.10;7.40;;;18.90;99.90;;;;;;5056082;28;20215;-60
2023/05/23 00:34:36;;;;;;;9.07;7.57;;;18.90;99.90;;;;;;5055839;28;20634;-61
2023/05/23 00:37:03;;;;;;;9.23;7.40;;;18.80;99.90;;;;;;5056312;28;20180;-60
2023/05/23 00:39:29;;;;;;;8.30;7.27;;;18.80;99.90;;;;;;5056401;28;20169;-61
2023/05/23 00:41:55;;;;;;;9.43;7.43;;;18.80;99.90;;;;;;5056869;28;20280;-60
2023/05/23 00:44:22;;;;;;;10.03;8.00;;;18.70;99.90;;;;;;5056781;28;20169;-61
2023/05/23 00:46:51;;;;;;;7.97;7.17;;;18.70;99.90;;;;;;5057478;28;20169;-60
2023/05/23 00:49:18;;;;;;;8.10;7.37;;;18.70;99.90;;;;;;5057503;28;20184;-60
2023/05/23 00:51:45;;;;;;;7.77;6.97;;;18.70;99.90;;;;;;5057479;28;20182;-60
2023/05/23 00:54:12;;;;;;;9.77;7.70;;;18.70;99.90;;;;;;5057151;28;20208;-60
2023/05/23 00:56:38;;;;;;;8.97;8.10;;;18.70;99.90;;;;;;5057363;28;20165;-61
2023/05/23 00:59:05;;;;;;;9.43;7.60;;;18.60;99.90;;;;;;5058084;28;20446;-60
2023/05/23 01:01:32;;;;;;;8.80;7.87;;;18.60;99.90;;;;;;5056946;28;20234;-61
2023/05/23 01:03:57;;;;;;;11.13;8.20;;;18.60;99.90;;;;;;5057528;28;20169;-59
2023/05/23 01:06:23;;;;;;;8.60;7.73;;;18.50;99.90;;;;;;5057148;28;20177;-60
2023/05/23 01:08:49;;;;;;;9.03;8.13;;;18.50;99.90;;;;;;5057163;28;20173;-60
2023/05/23 01:11:26;;;;;;;9.90;8.30;;;18.60;99.90;;;;;;5057054;28;20173;-60
2023/05/23 01:14:17;;;;;;;9.27;8.17;;;18.60;99.90;;;;;;5056897;28;20196;-60
2023/05/23 01:16:47;;;;;;;8.83;8.03;;;18.60;99.90;;;;;;5056881;28;20287;-60
2023/05/23 01:19:28;;;;;;;10.03;8.03;;;18.60;99.90;;;;;;5056940;28;20224;-61
2023/05/23 01:21:57;;;;;;;10.13;8.90;;;18.60;99.90;;;;;;5056831;28;20173;-61
2023/05/23 01:24:25;;;;;;;10.40;8.53;;;18.60;99.90;;;;;;5057579;28;20162;-61
2023/05/23 01:27:04;;;;;;;9.80;8.87;;;18.60;99.90;;;;;;5056797;28;20187;-60
2023/05/23 01:29:45;;;;;;;9.03;8.13;;;18.60;99.90;;;;;;5057874;28;20177;-60
2023/05/23 01:32:12;;;;;;;8.93;8.00;;;18.60;99.90;;;;;;5057974;28;20165;-60
2023/05/23 01:34:40;;;;;;;9.67;8.70;;;18.60;99.90;;;;;;5056941;28;20240;-60
2023/05/23 01:37:10;;;;;;;10.97;9.40;;;18.60;99.90;;;;;;5057070;28;20176;-60
2023/05/23 01:39:36;;;;;;;9.57;8.67;;;18.60;99.90;;;;;;5057186;28;20165;-60
2023/05/23 01:42:03;;;;;;;10.77;8.63;;;18.60;99.90;;;;;;5057501;28;20256;-60
2023/05/23 01:44:29;;;;;;;10.57;9.57;;;18.60;99.90;;;;;;5057160;28;20449;-60
2023/05/23 01:46:54;;;;;;;11.20;9.93;;;18.60;99.90;;;;;;5056925;28;20644;-60
2023/05/23 01:49:22;;;;;;;11.90;9.93;;;18.60;99.90;;;;;;5056361;28;20604;-60
2023/05/23 01:51:48;;;;;;;10.63;9.63;;;18.60;99.90;;;;;;5057280;28;20177;-60
2023/05/23 01:54:15;;;;;;;11.37;10.20;;;18.50;99.90;;;;;;5056526;28;20197;-60
2023/05/23 01:56:42;;;;;;;11.00;10.00;;;18.50;99.90;;;;;;5056984;28;20165;-60
2023/05/23 01:59:08;;;;;;;11.50;10.30;;;18.50;99.90;;;;;;5057080;28;20162;-61
2023/05/23 02:01:36;;;;;;;12.23;11.03;;;18.50;99.90;;;;;;5056547;28;20169;-60
2023/05/23 02:04:02;;;;;;;15.43;13.93;;;18.40;99.90;;;;;;5056783;28;20169;-60
2023/05/23 02:06:28;;;;;;;16.97;15.10;;;18.20;99.90;;;;;;5056115;28;20701;-60
2023/05/23 02:08:53;;;;;;;20.50;18.33;;;18.00;99.90;;;;;;5056002;28;20268;-61
2023/05/23 02:11:21;;;;;;;21.97;19.77;;;17.90;99.90;;;;;;5056173;28;20177;-61
2023/05/23 02:13:46;;;;;;;22.03;19.77;;;17.80;99.90;;;;;;5056760;28;20713;-61
2023/05/23 02:16:12;;;;;;;22.80;20.60;;;17.80;99.90;;;;;;5059929;28;20180;-61
2023/05/23 02:18:38;;;;;;;21.80;19.80;;;17.80;99.90;;;;;;5060685;28;20283;-61
2023/05/23 02:21:07;;;;;;;23.93;21.60;;;17.70;99.90;;;;;;5060188;28;20169;-61
2023/05/23 02:23:32;;;;;;;23.47;21.17;;;17.70;99.90;;;;;;5060777;28;20224;-61
2023/05/23 02:26:17;;;;;;;25.53;23.13;;;17.70;99.90;;;;;;5060865;28;20500;-60
2023/05/23 02:28:43;;;;;;;25.10;22.50;;;17.50;99.90;;;;;;5060664;28;20161;-61
2023/05/23 02:31:08;;;;;;;26.03;23.30;;;17.50;99.90;;;;;;5061032;28;20450;-62
2023/05/23 02:33:34;;;;;;;27.60;24.87;;;17.50;99.90;;;;;;5059911;28;20170;-60
2023/05/23 02:36:01;;;;;;;28.63;25.87;;;17.40;99.90;;;;;;5061149;28;20177;-61
2023/05/23 02:38:26;;;;;;;29.63;26.40;;;17.40;99.90;;;;;;5060234;28;20212;-61
2023/05/23 02:40:52;;;;;;;29.87;26.80;;;17.50;99.90;;;;;;5060335;28;20204;-61
2023/05/23 02:43:18;;;;;;;31.07;27.77;;;17.30;99.90;;;;;;5059930;28;20620;-60
2023/05/23 02:45:44;;;;;;;34.23;27.17;;;17.30;99.90;;;;;;5059901;28;20251;-60
2023/05/23 02:48:10;;;;;;;32.93;28.10;;;17.30;99.90;;;;;;5059974;28;20444;-61
2023/05/23 02:50:36;;;;;;;30.37;27.17;;;17.30;99.90;;;;;;5059539;28;20177;-61
2023/05/23 02:53:02;;;;;;;36.33;28.43;;;17.20;99.90;;;;;;5060141;28;20288;-63
2023/05/23 02:55:28;;;;;;;42.07;29.60;;;17.20;99.90;;;;;;5059359;28;20615;-63
2023/05/23 02:57:53;;;;;;;36.87;29.33;;;17.20;99.90;;;;;;5059867;28;20164;-62
2023/05/23 03:00:19;;;;;;;35.37;30.30;;;17.20;99.90;;;;;;5059686;28;20165;-62
2023/05/23 03:02:45;;;;;;;34.13;28.63;;;17.30;99.90;;;;;;5059434;28;20176;-61
2023/05/23 03:05:10;;;;;;;34.70;29.97;;;17.20;99.90;;;;;;5057992;28;20463;-61
2023/05/23 03:07:36;;;;;;;38.30;29.10;;;17.20;99.90;;;;;;5057834;28;20162;-61
2023/05/23 03:10:02;;;;;;;41.00;29.30;;;17.10;99.90;;;;;;5057074;28;20177;-61
2023/05/23 03:12:28;;;;;;;39.13;28.63;;;17.10;99.90;;;;;;5057065;28;20184;-61
2023/05/23 03:14:54;;;;;;;38.90;27.40;;;17.00;99.90;;;;;;5055617;28;20636;-61
2023/05/23 03:17:20;;;;;;;37.73;26.50;;;17.00;99.90;;;;;;5057185;28;20230;-62
2023/05/23 03:19:45;;;;;;;44.67;26.50;;;17.10;99.90;;;;;;5056389;28;20331;-61
2023/05/23 03:22:11;;;;;;;40.23;27.67;;;17.10;99.90;;;;;;5058371;28;20173;-61
2023/05/23 03:24:36;;;;;;;36.17;26.97;;;17.00;99.90;;;;;;5058613;28;20178;-60
2023/05/23 03:27:03;;;;;;;29.33;25.57;;;16.90;99.90;;;;;;5058458;28;20226;-61
2023/05/23 03:29:28;;;;;;;30.57;25.10;;;16.90;99.90;;;;;;5058373;28;20189;-60
2023/05/23 03:31:54;;;;;;;32.33;24.07;;;16.80;99.90;;;;;;5059346;28;20169;-62
2023/05/23 03:34:19;;;;;;;34.73;24.67;;;16.90;99.90;;;;;;5058897;28;20205;-60
2023/05/23 03:36:45;;;;;;;35.30;24.90;;;16.80;99.90;;;;;;5058691;28;20786;-61
2023/05/23 03:39:11;;;;;;;36.73;24.23;;;16.90;99.90;;;;;;5058499;28;20580;-62
2023/05/23 03:41:36;;;;;;;28.57;22.93;;;16.90;99.90;;;;;;5058522;28;20257;-62
2023/05/23 03:44:02;;;;;;;36.80;25.17;;;16.90;99.90;;;;;;5058842;28;20170;-61
2023/05/23 03:46:27;;;;;;;32.33;23.60;;;16.80;99.90;;;;;;5057795;28;20169;-61
2023/05/23 03:48:53;;;;;;;30.70;23.60;;;16.70;99.90;;;;;;5057850;28;20195;-61
2023/05/23 03:51:19;;;;;;;35.80;24.50;;;16.70;99.90;;;;;;5057341;28;20520;-61
2023/05/23 03:53:45;;;;;;;32.17;23.57;;;16.70;99.90;;;;;;5057108;28;20224;-61
2023/05/23 03:56:10;;;;;;;30.77;24.07;;;16.60;99.90;;;;;;5058244;28;20521;-62
2023/05/23 03:58:36;;;;;;;39.77;26.03;;;16.60;99.90;;;;;;5057357;28;20196;-61
2023/05/23 04:01:01;;;;;;;37.13;24.57;;;16.60;99.90;;;;;;5057306;28;20161;-61
2023/05/23 04:03:31;;;;;;;31.27;23.93;;;16.60;99.90;;;;;;5056469;28;20259;-61
2023/05/23 04:05:57;;;;;;;28.60;23.67;;;16.60;99.90;;;;;;5056806;28;20331;-61
2023/05/23 04:08:23;;;;;;;33.17;23.77;;;16.70;99.90;;;;;;5058072;28;20322;-61
2023/05/23 04:10:55;;;;;;;31.83;24.37;;;16.60;99.90;;;;;;5057834;28;20264;-61
2023/05/23 04:13:22;;;;;;;29.53;22.97;;;16.60;99.90;;;;;;5057598;28;20166;-61
2023/05/23 04:15:47;;;;;;;35.03;24.27;;;16.60;99.90;;;;;;5053596;28;20609;-61
2023/05/23 04:18:13;;;;;;;28.57;22.50;;;16.60;99.90;;;;;;5051616;28;20177;-61
2023/05/23 04:20:40;;;;;;;30.47;23.10;;;16.60;99.90;;;;;;5050941;28;20193;-60
2023/05/23 04:23:06;;;;;;;29.57;22.50;;;16.60;99.90;;;;;;5043143;28;20316;-61
2023/05/23 04:25:33;;;;;;;31.63;22.73;;;16.50;99.90;;;;;;5039435;28;20582;-60
2023/05/23 04:27:58;;;;;;;30.27;22.67;;;16.60;99.90;;;;;;5037537;28;20434;-59
2023/05/23 04:30:24;;;;;;;34.93;22.57;;;16.50;99.90;;;;;;5037510;28;20250;-60
2023/05/23 04:32:49;;;;;;;32.03;21.57;;;16.40;99.90;;;;;;5044370;28;20641;-60
2023/05/23 04:35:15;;;;;;;31.90;24.20;;;16.50;99.90;;;;;;5042435;28;20244;-61
2023/05/23 04:37:41;;;;;;;35.67;23.70;;;16.50;99.90;;;;;;5043316;28;20384;-61
2023/05/23 04:40:07;;;;;;;31.77;22.33;;;16.40;99.90;;;;;;5042148;28;20557;-60
2023/05/23 04:42:33;;;;;;;35.73;23.77;;;16.40;99.90;;;;;;5040052;28;20170;-61
2023/05/23 04:45:00;;;;;;;32.00;23.70;;;16.50;99.90;;;;;;5041820;28;20197;-60
2023/05/23 04:47:27;;;;;;;33.27;23.50;;;16.40;99.90;;;;;;5042524;28;20438;-60
2023/05/23 04:49:56;;;;;;;31.67;23.20;;;16.30;99.90;;;;;;5043266;28;20261;-60
2023/05/23 04:52:22;;;;;;;34.53;24.67;;;16.30;99.90;;;;;;5042964;28;20191;-60
2023/05/23 04:54:47;;;;;;;36.93;25.67;;;16.20;99.90;;;;;;5041942;28;20211;-60
2023/05/23 04:57:13;;;;;;;36.30;25.77;;;16.20;99.90;;;;;;5044239;28;20165;-61
2023/05/23 04:59:39;;;;;;;43.60;25.13;;;16.20;99.90;;;;;;5045331;28;20169;-61
2023/05/23 05:02:05;;;;;;;40.47;26.07;;;16.20;99.90;;;;;;5047177;28;20161;-61
2023/05/23 05:04:30;;;;;;;39.83;26.57;;;16.30;99.90;;;;;;5046449;28;20687;-61
2023/05/23 05:06:56;;;;;;;37.00;25.27;;;16.30;99.90;;;;;;5048351;28;20452;-61
2023/05/23 05:09:22;;;;;;;36.00;24.70;;;16.30;99.90;;;;;;5047075;28;20386;-61
2023/05/23 05:11:48;;;;;;;39.23;26.13;;;16.20;99.90;;;;;;5044620;28;20215;-61
2023/05/23 05:14:13;;;;;;;43.00;28.10;;;16.10;99.90;;;;;;5041955;28;20556;-61
2023/05/23 05:16:39;;;;;;;40.33;25.67;;;16.20;99.90;;;;;;5042058;28;20255;-61
2023/05/23 05:19:05;;;;;;;39.23;25.90;;;16.10;99.90;;;;;;5043577;28;20210;-61
2023/05/23 05:21:30;;;;;;;39.03;25.67;;;16.20;99.90;;;;;;5044040;28;20183;-61
2023/05/23 05:23:56;;;;;;;36.20;25.83;;;16.20;99.90;;;;;;5050656;28;20653;-61
2023/05/23 05:26:22;;;;;;;38.27;25.63;;;16.20;99.90;;;;;;5052350;28;20157;-60
2023/05/23 05:28:48;;;;;;;44.83;25.93;;;16.10;99.90;;;;;;5052138;28;20173;-61
2023/05/23 05:31:14;;;;;;;36.67;25.93;;;16.20;99.90;;;;;;5050973;28;20173;-60
2023/05/23 05:33:40;;;;;;;40.13;25.93;;;16.10;99.90;;;;;;5051806;28;20170;-61
2023/05/23 05:36:06;;;;;;;34.67;24.10;;;16.10;99.90;;;;;;5051556;28;20180;-61
2023/05/23 05:38:32;;;;;;;41.27;27.03;;;16.10;99.90;;;;;;5049800;28;20157;-61
2023/05/23 05:40:58;;;;;;;41.27;26.67;;;16.00;99.90;;;;;;5050206;28;20255;-61
2023/05/23 05:43:25;;;;;;;40.70;28.13;;;16.10;99.90;;;;;;5050384;28;20149;-61
2023/05/23 05:45:50;;;;;;;40.20;26.53;;;16.10;99.90;;;;;;5049397;28;20503;-61
2023/05/23 05:48:16;;;;;;;38.23;26.77;;;16.10;99.90;;;;;;5050805;28;20161;-61
2023/05/23 05:50:44;;;;;;;34.70;24.87;;;16.00;99.90;;;;;;5051905;28;20173;-61
2023/05/23 05:53:12;;;;;;;34.87;25.80;;;16.10;99.90;;;;;;5050663;28;20215;-61
2023/05/23 05:55:37;;;;;;;39.17;25.57;;;16.00;99.90;;;;;;5048336;28;20205;-61
2023/05/23 05:58:03;;;;;;;34.87;26.07;;;16.10;99.90;;;;;;5048273;28;20165;-61
2023/05/23 06:00:29;;;;;;;38.43;28.47;;;16.00;99.90;;;;;;5046058;28;20162;-59
2023/05/23 06:02:58;;;;;;;38.33;27.37;;;16.00;99.90;;;;;;5045412;28;20247;-61
2023/05/23 06:05:24;;;;;;;39.90;27.10;;;16.10;99.90;;;;;;5045401;28;20563;-61
2023/05/23 06:07:50;;;;;;;51.17;30.20;;;16.10;99.90;;;;;;5048926;28;20162;-61
2023/05/23 06:10:15;;;;;;;52.40;29.57;;;16.10;99.90;;;;;;5050046;28;20180;-60
2023/05/23 06:12:41;;;;;;;44.80;28.97;;;16.10;99.90;;;;;;5050749;28;20586;-61
2023/05/23 06:15:08;;;;;;;43.87;28.57;;;16.10;99.90;;;;;;5051133;28;20871;-61
2023/05/23 06:17:34;;;;;;;43.57;28.80;;;16.10;99.90;;;;;;5052882;28;20170;-61
2023/05/23 06:20:00;;;;;;;50.47;30.93;;;16.00;99.90;;;;;;5054289;28;20236;-61
2023/05/23 06:22:25;;;;;;;44.60;30.40;;;16.00;99.90;;;;;;5053871;28;20181;-61
2023/05/23 06:24:51;;;;;;;45.37;29.70;;;16.00;99.90;;;;;;5052643;28;20236;-61
2023/05/23 06:27:17;;;;;;;44.37;29.40;;;15.90;99.90;;;;;;5051312;28;20181;-61
2023/05/23 06:29:42;;;;;;;49.63;29.63;;;16.00;99.90;;;;;;5049867;28;20174;-61
2023/05/23 06:32:08;;;;;;;45.80;29.40;;;15.90;99.90;;;;;;5048668;28;20157;-61
2023/05/23 06:34:33;;;;;;;42.30;29.37;;;16.00;99.90;;;;;;5049823;28;20194;-60
2023/05/23 06:36:59;;;;;;;40.37;27.83;;;16.00;99.90;;;;;;5050890;28;20208;-63
2023/05/23 06:39:24;;;;;;;42.37;28.60;;;16.10;99.90;;;;;;5050634;28;20268;-61
2023/05/23 06:41:50;;;;;;;45.30;28.77;;;16.00;99.90;;;;;;5051565;28;20150;-61
2023/05/23 06:44:15;;;;;;;44.93;28.07;;;16.10;99.90;;;;;;5052332;28;20188;-61
2023/05/23 06:46:45;;;;;;;41.60;27.23;;;16.10;99.90;;;;;;5051864;28;20150;-61
2023/05/23 06:49:11;;;;;;;38.77;25.17;;;16.00;99.90;;;;;;5049310;28;20261;-61
2023/05/23 06:51:36;;;;;;;37.40;25.13;;;16.10;99.90;;;;;;5049403;28;20170;-61
2023/05/23 06:54:02;;;;;;;36.30;24.80;;;16.10;99.90;;;;;;5048367;28;20701;-61
2023/05/23 06:56:28;;;;;;;41.07;25.90;;;16.10;99.90;;;;;;5046808;28;20169;-61
2023/05/23 06:58:53;;;;;;;35.33;24.93;;;16.10;99.90;;;;;;5047471;28;20166;-61
2023/05/23 07:01:19;;;;;;;32.60;24.23;;;16.10;99.90;;;;;;5048468;28;20680;-61
2023/05/23 07:03:44;;;;;;;33.23;22.97;;;16.00;99.90;;;;;;5049032;28;20240;-61
2023/05/23 07:06:11;;;;;;;30.67;21.47;;;16.00;99.90;;;;;;5047917;28;20180;-60
2023/05/23 07:08:37;;;;;;;29.27;20.00;;;16.00;99.90;;;;;;5047753;28;20193;-61
2023/05/23 07:11:03;;;;;;;24.43;18.87;;;16.10;99.90;;;;;;5047661;28;20145;-61
2023/05/23 07:13:28;;;;;;;25.80;18.67;;;16.10;99.90;;;;;;5042492;28;20782;-61
2023/05/23 07:15:55;;;;;;;20.43;14.60;;;16.00;99.90;;;;;;5042516;28;20227;-60
2023/05/23 07:18:21;;;;;;;21.33;15.03;;;16.00;99.90;;;;;;5041529;28;20257;-61
2023/05/23 07:20:46;;;;;;;13.47;11.17;;;16.00;99.90;;;;;;5044842;28;20208;-61
2023/05/23 07:23:12;;;;;;;14.97;9.90;;;16.00;99.90;;;;;;5044710;28;20478;-61
2023/05/23 07:25:39;;;;;;;11.10;9.67;;;15.90;99.90;;;;;;5041888;28;20153;-61
2023/05/23 07:28:04;;;;;;;11.43;9.07;;;15.90;99.90;;;;;;5042933;28;20812;-61
2023/05/23 07:30:30;;;;;;;14.50;8.97;;;15.90;99.90;;;;;;5045817;28;20185;-61
2023/05/23 07:32:58;;;;;;;13.27;8.57;;;15.90;99.90;;;;;;5045803;28;20268;-62
2023/05/23 07:35:25;;;;;;;10.27;8.57;;;16.00;99.90;;;;;;5046743;28;20639;-62
2023/05/23 07:37:54;;;;;;;9.87;8.33;;;15.90;99.90;;;;;;5046765;28;20165;-61
2023/05/23 07:40:20;;;;;;;9.17;7.93;;;15.90;99.90;;;;;;5048879;28;20165;-61
2023/05/23 07:42:46;;;;;;;9.23;8.20;;;16.00;99.90;;;;;;5048261;28;20162;-61
2023/05/23 07:45:12;;;;;;;11.57;7.80;;;15.90;99.90;;;;;;5048454;28;20208;-61
2023/05/23 07:47:39;;;;;;;11.30;7.33;;;15.90;99.90;;;;;;5046939;28;20623;-61
2023/05/23 07:50:05;;;;;;;9.13;6.80;;;16.00;99.90;;;;;;5046398;28;20416;-62
2023/05/23 07:52:31;;;;;;;8.67;6.07;;;16.00;99.90;;;;;;5041644;28;20173;-61
2023/05/23 07:54:58;;;;;;;9.97;6.60;;;16.00;99.90;;;;;;5037710;28;20208;-61
2023/05/23 07:57:23;;;;;;;7.07;6.10;;;16.00;99.90;;;;;;5035858;28;20428;-61
2023/05/23 07:59:51;;;;;;;8.87;6.23;;;16.00;99.90;;;;;;5038851;28;20191;-61
2023/05/23 08:02:17;;;;;;;8.13;6.50;;;16.00;99.90;;;;;;5035977;28;20326;-62
2023/05/23 08:04:44;;;;;;;6.97;5.80;;;16.00;99.90;;;;;;5034876;28;20270;-59
2023/05/23 08:07:10;;;;;;;7.13;5.40;;;16.10;99.90;;;;;;5033508;28;20709;-61
2023/05/23 08:09:36;;;;;;;9.90;6.20;;;16.20;99.90;;;;;;5034481;28;20480;-61
2023/05/23 08:12:02;;;;;;;7.67;5.43;;;16.20;99.90;;;;;;5035054;28;20233;-60
2023/05/23 08:14:28;;;;;;;5.83;5.20;;;16.10;99.90;;;;;;5032984;28;20388;-61
2023/05/23 08:16:54;;;;;;;6.90;4.90;;;16.10;99.90;;;;;;5034282;28;20172;-61
2023/05/23 08:19:19;;;;;;;6.23;4.83;;;16.10;99.90;;;;;;5031362;28;20246;-63
2023/05/23 08:21:46;;;;;;;7.93;5.00;;;16.10;99.90;;;;;;5038927;28;20166;-61
2023/05/23 08:24:12;;;;;;;7.93;5.50;;;16.00;99.90;;;;;;5046263;28;20169;-62
2023/05/23 08:26:38;;;;;;;5.30;4.47;;;16.00;99.90;;;;;;5045556;28;20454;-62
2023/05/23 08:29:04;;;;;;;8.40;5.43;;;16.00;99.90;;;;;;5047808;28;20336;-61
2023/05/23 08:31:33;;;;;;;5.60;5.00;;;16.00;99.90;;;;;;5050201;28;20730;-61
2023/05/23 08:33:59;;;;;;;5.70;4.37;;;16.00;99.90;;;;;;5047686;28;20327;-61
2023/05/23 08:36:24;;;;;;;7.73;4.20;;;16.00;99.90;;;;;;5047778;28;20246;-62
2023/05/23 08:38:51;;;;;;;6.20;3.60;;;16.00;99.90;;;;;;5049191;28;20725;-62
2023/05/23 08:41:22;;;;;;;5.20;4.10;;;16.10;99.90;;;;;;5049928;28;20593;-61
2023/05/23 08:43:48;;;;;;;6.20;3.43;;;16.10;99.90;;;;;;5047622;28;20161;-61
2023/05/23 08:46:23;;;;;;;8.33;3.63;;;16.10;99.90;;;;;;5047281;28;20170;-61
2023/05/23 08:48:56;;;;;;;7.07;3.50;;;16.10;99.90;;;;;;5039406;28;21059;-61
2023/05/23 08:51:42;;;;;;;5.47;3.53;;;16.00;99.90;;;;;;5048607;28;20768;-62
2023/05/23 08:54:12;;;;;;;6.17;4.17;;;16.00;99.90;;;;;;5048100;28;20201;-61
2023/05/23 08:56:38;;;;;;;5.20;3.97;;;16.00;99.90;;;;;;5045973;28;20169;-61
2023/05/23 08:59:05;;;;;;;7.27;4.17;;;15.90;99.90;;;;;;5046043;28;20202;-61
2023/05/23 09:01:32;;;;;;;5.67;4.30;;;15.90;99.90;;;;;;5045430;28;20169;-61
2023/05/23 09:04:03;;;;;;;5.43;3.90;;;15.90;99.90;;;;;;5044387;28;20331;-62
2023/05/23 09:06:31;;;;;;;4.57;4.17;;;15.90;99.90;;;;;;5043897;28;20158;-61
2023/05/23 09:08:57;;;;;;;5.10;4.40;;;15.90;99.90;;;;;;5044617;28;20180;-62
2023/05/23 09:11:23;;;;;;;6.77;4.10;;;16.00;99.90;;;;;;5045517;28;20158;-62
2023/05/23 09:13:49;;;;;;;6.73;5.00;;;15.90;99.90;;;;;;5044421;28;20268;-61
2023/05/23 09:16:16;;;;;;;4.97;4.57;;;15.90;99.90;;;;;;5046206;28;20323;-63
2023/05/23 09:18:44;;;;;;;4.50;3.97;;;15.90;99.90;;;;;;5048718;28;20240;-61
2023/05/23 09:21:11;;;;;;;9.93;5.33;;;15.70;99.90;;;;;;5049117;28;20611;-62
2023/05/23 09:23:40;;;;;;;7.63;6.40;;;15.60;99.90;;;;;;5049339;28;20169;-61
2023/05/23 09:26:09;;;;;;;8.93;6.17;;;15.50;99.90;;;;;;5047652;28;20264;-61
2023/05/23 09:28:39;;;;;;;9.07;6.37;;;15.50;99.90;;;;;;5046012;28;20166;-61
2023/05/23 09:31:07;;;;;;;9.90;6.47;;;15.50;99.90;;;;;;5044832;28;20573;-61
2023/05/23 09:33:48;;;;;;;12.07;7.53;;;15.40;99.90;;;;;;5042626;28;20673;-60
2023/05/23 09:36:16;;;;;;;9.00;6.90;;;15.40;99.90;;;;;;5034603;28;20177;-60
2023/05/23 09:38:45;;;;;;;7.97;6.53;;;15.40;99.90;;;;;;5044600;28;20184;-56
2023/05/23 09:41:12;;;;;;;11.60;6.83;;;15.30;99.90;;;;;;5028800;28;20490;-60
2023/05/23 09:44:00;;;;;;;10.30;6.03;;;15.30;99.90;;;;;;5019328;28;20649;-58
2023/05/23 09:46:27;;;;;;;10.33;6.00;;;15.20;99.90;;;;;;5023634;28;20202;-60
2023/05/23 09:48:54;;;;;;;8.90;5.77;;;15.20;99.90;;;;;;5025999;28;20169;-59
2023/05/23 09:51:23;;;;;;;6.37;4.67;;;15.10;99.90;;;;;;5026638;28;20166;-60
2023/05/23 09:53:49;;;;;;;6.67;4.80;;;15.10;99.90;;;;;;5026251;28;20166;-60
2023/05/23 09:56:17;;;;;;;5.83;4.27;;;15.00;99.90;;;;;;5028073;28;20170;-60
2023/05/23 09:58:48;;;;;;;6.47;4.33;;;15.00;99.90;;;;;;5027960;28;20154;-59
2023/05/23 10:01:15;;;;;;;4.30;3.50;;;14.90;99.90;;;;;;5011305;28;20276;-60
2023/05/23 10:03:47;;;;;;;7.80;3.57;;;14.90;99.90;;;;;;5027019;28;20176;-58
2023/05/23 10:06:24;;;;;;;5.93;3.73;;;14.90;99.90;;;;;;5026465;28;20174;-59
2023/05/23 10:08:56;;;;;;;4.40;3.53;;;14.90;99.90;;;;;;5027799;28;20180;-57
2023/05/23 10:11:58;;;;;;;5.60;3.47;;;15.00;99.90;;;;;;5026730;28;20177;-60
2023/05/23 10:14:28;;;;;;;3.80;3.27;;;15.00;99.90;;;;;;5027203;28;20732;-59
2023/05/23 10:17:17;;;;;;;7.30;3.50;;;15.00;99.90;;;;;;5010166;28;20593;-60
2023/05/23 10:19:48;;;;;;;8.30;3.10;;;15.00;99.90;;;;;;5026629;28;20229;-60
2023/05/23 10:22:15;;;;;;;9.10;3.10;;;15.00;99.90;;;;;;5026581;28;20171;-60
2023/05/23 10:24:45;;;;;;;9.20;3.70;;;14.80;99.90;;;;;;5028772;28;20170;-59
2023/05/23 10:27:13;;;;;;;5.93;3.07;;;14.80;99.90;;;;;;5030579;28;20483;-59
2023/05/23 10:29:40;;;;;;;4.50;2.57;;;14.80;99.90;;;;;;5028982;28;20194;-58
2023/05/23 10:32:09;;;;;;;8.10;2.97;;;14.90;99.90;;;;;;5028590;28;20150;-60
2023/05/23 10:35:14;;;;;;;4.33;2.47;;;14.80;99.90;;;;;;5027080;28;20543;-58
2023/05/23 10:38:05;;;;;;;11.63;3.07;;;14.70;99.90;;;;;;5031503;28;20171;-60
2023/05/23 10:41:08;;;;;;;4.67;2.53;;;14.80;99.90;;;;;;5029386;28;20596;-60
2023/05/23 10:43:45;;;;;;;6.37;2.60;;;14.90;99.90;;;;;;5002314;28;20197;-60
2023/05/23 10:46:15;;;;;;;4.30;2.27;;;14.90;99.90;;;;;;5026365;28;20169;-60
2023/05/23 10:48:43;;;;;;;6.90;2.47;;;15.00;99.90;;;;;;5025711;28;20229;-60
2023/05/23 10:51:13;;;;;;;7.30;2.47;;;14.90;99.90;;;;;;5026720;28;20170;-60
2023/05/23 10:53:43;;;;;;;7.50;2.10;;;14.90;99.90;;;;;;5027042;28;20272;-60
2023/05/23 10:56:22;;;;;;;8.37;2.70;;;14.90;99.90;;;;;;5025072;28;20710;-60
2023/05/23 10:58:53;;;;;;;7.00;2.40;;;14.90;99.90;;;;;;5027416;28;20519;-60
2023/05/23 11:01:19;;;;;;;4.67;2.43;;;15.00;99.90;;;;;;5025635;28;20162;-60
2023/05/23 11:03:45;;;;;;;4.90;2.33;;;14.90;99.90;;;;;;5025143;28;20169;-59
2023/05/23 11:06:38;;;;;;;7.80;2.50;;;14.90;99.90;;;;;;5023500;28;20174;-59
2023/05/23 11:09:11;;;;;;;5.13;2.23;;;14.90;99.90;;;;;;5020717;28;20562;-59
2023/05/23 11:12:04;;;;;;;10.97;3.33;;;14.90;99.90;;;;;;5019735;28;20181;-60
2023/05/23 11:14:36;;;;;;;6.00;2.43;;;14.90;99.90;;;;;;5018855;28;20594;-60
2023/05/23 11:17:11;;;;;;;10.93;2.97;;;14.90;99.90;;;;;;5019256;28;20269;-59
2023/05/23 11:19:38;;;;;;;5.77;2.50;;;14.90;99.90;;;;;;5018994;28;20363;-59
2023/05/23 11:22:07;;;;;;;9.13;2.53;;;15.00;99.90;;;;;;5019570;28;20188;-59
2023/05/23 11:24:56;;;;;;;9.23;2.80;;;15.00;99.90;;;;;;5022302;28;20154;-59
2023/05/23 11:27:51;;;;;;;6.17;2.97;;;15.10;99.90;;;;;;5022041;28;20222;-59
2023/05/23 11:30:17;;;;;;;8.00;2.87;;;15.10;99.90;;;;;;5018555;28;20197;-58
2023/05/23 11:32:51;;;;;;;9.97;3.03;;;15.20;99.90;;;;;;5021187;28;20247;-60
2023/05/23 11:35:17;;;;;;;6.60;2.93;;;15.20;99.90;;;;;;5020601;28;20190;-59
2023/05/23 11:37:43;;;;;;;9.03;2.17;;;15.30;99.90;;;;;;5023093;28;20166;-60
2023/05/23 11:40:28;;;;;;;5.20;2.30;;;15.40;99.90;;;;;;5038398;28;20188;-58
2023/05/23 11:42:55;;;;;;;10.40;2.77;;;15.30;99.90;;;;;;5045098;28;20181;-59
2023/05/23 11:45:26;;;;;;;6.90;2.27;;;15.50;99.90;;;;;;5048611;28;20188;-60
2023/05/23 11:47:51;;;;;;;7.60;2.67;;;15.70;99.90;;;;;;5048339;28;20169;-58
2023/05/23 11:50:23;;;;;;;10.03;2.70;;;15.70;99.90;;;;;;5048041;28;20219;-60
2023/05/23 11:52:50;;;;;;;8.87;2.77;;;15.70;99.90;;;;;;5046878;28;20161;-59
2023/05/23 11:55:20;;;;;;;5.80;2.43;;;15.70;99.90;;;;;;5045270;28;20208;-60
2023/05/23 11:57:46;;;;;;;12.67;4.00;;;15.60;99.90;;;;;;5045696;28;20261;-57
2023/05/23 12:00:14;;;;;;;11.20;2.70;;;15.40;99.90;;;;;;5042922;28;20260;-60
2023/05/23 12:02:42;;;;;;;7.83;3.00;;;15.30;99.90;;;;;;5045895;28;20686;-56
2023/05/23 12:05:12;;;;;;;13.27;3.17;;;15.40;99.90;;;;;;5045472;28;20177;-60
2023/05/23 12:07:43;;;;;;;13.70;3.63;;;15.40;99.90;;;;;;5037044;28;20169;-60
2023/05/23 12:10:13;;;;;;;5.87;2.97;;;15.40;99.90;;;;;;5033293;28;20177;-60
2023/05/23 12:12:41;;;;;;;9.07;3.20;;;15.50;99.90;;;;;;5029938;28;20224;-58
2023/05/23 12:15:08;;;;;;;11.30;3.47;;;15.60;99.90;;;;;;5030322;28;20232;-60
2023/05/23 12:17:34;;;;;;;8.30;2.93;;;15.70;99.90;;;;;;5029036;28;20450;-59
2023/05/23 12:20:00;;;;;;;12.43;3.87;;;15.60;99.90;;;;;;5028079;28;20792;-60
2023/05/23 12:22:27;;;;;;;9.00;2.70;;;15.70;99.90;;;;;;5027874;28;20268;-60
2023/05/23 12:24:54;;;;;;;10.67;2.77;;;15.80;99.90;;;;;;5029558;28;20260;-60
2023/05/23 12:27:30;;;;;;;10.10;4.07;;;16.00;99.90;;;;;;5031858;28;20213;-59
2023/05/23 12:30:15;;;;;;;12.27;3.10;;;16.10;99.90;;;;;;5028815;28;20185;-60
2023/05/23 12:32:42;;;;;;;9.87;3.00;;;16.10;99.90;;;;;;5028354;28;20387;-58
2023/05/23 12:35:13;;;;;;;14.17;3.37;;;16.10;99.90;;;;;;5027421;28;20748;-58
2023/05/23 12:37:44;;;;;;;7.30;2.90;;;16.20;99.90;;;;;;5037605;28;20342;-60
2023/05/23 12:40:13;;;;;;;13.73;3.20;;;16.20;99.90;;;;;;5038230;28;20193;-59